Terminal Aerodrome Forecast
Issued by NWS

Home | Current Version | Previous Version | Text Only | Print | Product List | Glossary On
Versions: 1 2 3 4 5 6 7 8 9 10 11 12 13 14 15 16 17 18 19 20 21 22 23 24 25 26 27 28 29 30 31 32 33 34 35 36 37
000
FTUS44 KFWD 280521
TAFDAL
TAF
KDAL 280521Z 2806/0106 06008KT 6SM -FZRASN SCT015 BKN020 OVC040
     FM280900 09007KT 5SM -FZDZ BR SCT009 OVC012
      TEMPO 2811/2815 3SM -FZDZ BR OVC007
     FM281800 06007KT 4SM -DZ BR OVC007
     FM010000 06005KT 2SM -DZ BR OVC005=

USA.gov is the U.S. government's official web portal to all federal, state and local government web resources and services.